Time;durP1;ratioP1;P1;durP2;ratioP2;P2;SDS_P1;SDS_P2;PMS_P1;PMS_P2;Temp;Humidity;BMP_temperature;BMP_pressure;BME280_temperature;BME280_humidity;BME280_pressure;Samples;Min_cycle;Max_cycle;Signal;HPM_P1;HPM_P2
2022/05/14 00:01:07;;;;;;;44.58;41.40;;;;;;;14.38;100.00;100728.75;4979993;28;20047;-88
2022/05/14 00:03:35;;;;;;;38.80;35.67;;;;;;;14.17;100.00;100735.44;4980442;28;20109;-87
2022/05/14 00:06:08;;;;;;;43.13;39.72;;;;;;;14.57;100.00;100729.47;4980264;28;20138;-87
2022/05/14 00:08:41;;;;;;;;;;;;;;;14.16;100.00;100721.28;4961750;29;20067;-88
2022/05/14 00:14:00;;;;;;;45.42;42.13;;;;;;;14.49;100.00;100717.22;4972472;28;20057;-88
2022/05/14 00:16:35;;;;;;;47.65;44.10;;;;;;;14.81;100.00;100717.72;4971609;28;20126;-88
2022/05/14 00:19:11;;;;;;;44.55;41.55;;;;;;;14.54;100.00;100713.91;4962954;28;20055;-87
2022/05/14 00:21:42;;;;;;;50.20;46.80;;;;;;;14.58;100.00;100717.72;4978334;28;20554;-87
2022/05/14 00:24:23;;;;;;;45.30;41.47;;;;;;;14.67;100.00;100708.31;4980481;28;20089;-87
2022/05/14 00:27:00;;;;;;;41.97;38.78;;;;;;;14.74;100.00;100706.34;4969040;28;20051;-87
2022/05/14 00:29:33;;;;;;;47.45;44.08;;;;;;;14.60;100.00;100704.97;4976152;28;20542;-88
2022/05/14 00:32:00;;;;;;;61.30;57.60;;;;;;;14.56;100.00;100704.63;4976969;28;20063;-87
2022/05/14 00:34:31;;;;;;;45.38;42.05;;;;;;;14.42;100.00;100708.53;4978495;28;20117;-87
2022/05/14 00:37:10;;;;;;;44.92;41.72;;;;;;;14.07;100.00;100703.97;4978929;28;20061;-87
2022/05/14 00:39:45;;;;;;;44.97;41.70;;;;;;;14.60;100.00;100703.09;4974733;28;20077;-88
2022/05/14 00:42:28;;;;;;;43.92;41.00;;;;;;;14.69;100.00;100694.72;4966942;28;20546;-87
2022/05/14 00:45:09;;;;;;;;;;;;;;;14.55;100.00;100689.59;4967207;28;20459;-88
2022/05/14 00:47:47;;;;;;;43.50;40.50;;;;;;;14.25;100.00;100689.72;4975794;28;19929;-86
2022/05/14 00:50:33;;;;;;;46.63;43.15;;;;;;;14.10;100.00;100698.16;4976980;28;20515;-87
2022/05/14 00:53:08;;;;;;;45.15;41.75;;;;;;;14.30;100.00;100703.16;4963286;28;20070;-87
2022/05/14 00:55:35;;;;;;;48.60;44.75;;;;;;;14.12;100.00;100690.72;4981355;28;21843;-87
2022/05/14 00:58:15;;;;;;;55.20;50.92;;;;;;;14.10;100.00;100695.50;4970406;28;20051;-87
2022/05/14 01:00:48;;;;;;;43.55;40.40;;;;;;;14.13;100.00;100703.03;4965586;28;20370;-87
2022/05/14 01:03:28;;;;;;;42.30;39.45;;;;;;;13.81;100.00;100702.47;4978834;28;20047;-88
2022/05/14 01:05:56;;;;;;;43.22;39.95;;;;;;;13.80;100.00;100708.03;4977654;28;20050;-87
2022/05/14 01:08:26;;;;;;;44.72;41.63;;;;;;;13.68;100.00;100700.81;4979790;28;20054;-88
2022/05/14 01:10:59;;;;;;;49.33;45.80;;;;;;;13.77;100.00;100698.66;4979866;28;20051;-87
2022/05/14 01:13:28;;;;;;;51.00;47.40;;;;;;;13.68;100.00;100700.00;4978712;28;20054;-87
2022/05/14 01:16:11;;;;;;;41.00;38.10;;;;;;;13.87;100.00;100703.44;4963937;28;20142;-87
2022/05/14 01:18:50;;;;;;;41.30;37.97;;;;;;;13.79;100.00;100704.56;4959619;28;20122;-88
2022/05/14 01:21:40;;;;;;;37.47;34.63;;;;;;;13.78;100.00;100700.28;4974718;28;20103;-88
2022/05/14 01:27:04;;;;;;;45.78;41.97;;;;;;;13.75;100.00;100709.53;4947237;28;20062;-87
2022/05/14 01:29:48;;;;;;;45.80;42.28;;;;;;;13.76;100.00;100710.34;4976042;28;20050;-87
2022/05/14 01:32:23;;;;;;;48.92;45.17;;;;;;;13.77;100.00;100711.16;4977075;28;20058;-87
2022/05/14 01:34:52;;;;;;;43.53;40.42;;;;;;;13.64;100.00;100718.31;4969615;28;20051;-87
2022/05/14 01:37:20;;;;;;;43.15;39.72;;;;;;;13.60;100.00;100714.47;4969408;28;20090;-88
2022/05/14 01:39:58;;;;;;;43.20;40.00;;;;;;;13.58;100.00;100713.06;4978569;28;20059;-87
2022/05/14 01:42:48;;;;;;;44.00;40.80;;;;;;;13.21;100.00;100707.75;4971958;28;20042;-87
2022/05/14 01:45:32;;;;;;;45.45;41.92;;;;;;;13.36;100.00;100713.53;4969719;28;20054;-88
2022/05/14 01:48:15;;;;;;;45.17;41.42;;;;;;;13.61;100.00;100707.28;4970228;28;20054;-87
2022/05/14 01:50:50;;;;;;;42.65;39.33;;;;;;;13.52;100.00;100704.94;4963765;28;20044;-88
2022/05/14 01:53:17;;;;;;;39.72;36.67;;;;;;;13.42;100.00;100707.31;4962603;28;20054;-87
2022/05/14 01:55:58;;;;;;;39.90;36.60;;;;;;;13.20;100.00;100700.81;4959839;28;20555;-87
2022/05/14 01:58:39;;;;;;;38.75;35.67;;;;;;;13.42;100.00;100701.16;4977124;28;20051;-87
2022/05/14 02:01:17;;;;;;;41.33;38.28;;;;;;;13.37;100.00;100701.81;5084146;23;20058;-86
2022/05/14 02:04:25;;;;;;;46.03;42.38;;;;;;;13.52;100.00;100706.78;4978647;28;20129;-85
2022/05/14 02:06:55;;;;;;;46.50;43.33;;;;;;;13.43;100.00;100702.78;4975093;28;20059;-85
2022/05/14 02:09:22;;;;;;;46.65;43.25;;;;;;;13.34;100.00;100699.59;4978273;28;20043;-85
2022/05/14 02:11:49;;;;;;;47.63;44.33;;;;;;;13.04;100.00;100699.53;4978502;28;20073;-85
2022/05/14 02:14:32;;;;;;;48.38;45.17;;;;;;;12.80;100.00;100706.56;4978030;28;20485;-85
2022/05/14 02:17:07;;;;;;;39.15;36.13;;;;;;;12.85;100.00;100712.03;4976414;28;20051;-85
2022/05/14 02:19:36;;;;;;;38.83;35.80;;;;;;;13.25;100.00;100715.13;4969353;28;20109;-85
2022/05/14 02:22:14;;;;;;;35.55;32.83;;;;;;;13.40;100.00;100711.25;4991044;28;20046;-86
2022/05/14 02:24:49;;;;;;;37.53;34.53;;;;;;;13.10;100.00;100705.81;4972501;28;20483;-86
2022/05/14 02:27:22;;;;;;;40.75;37.50;;;;;;;13.18;100.00;100710.88;4978962;28;20059;-85
2022/05/14 02:30:09;;;;;;;42.90;39.88;;;;;;;12.70;100.00;100709.72;4983446;28;20051;-85
2022/05/14 02:32:57;;;;;;;46.30;42.60;;;;;;;12.80;100.00;100710.06;4978819;28;20061;-85
2022/05/14 02:35:43;;;;;;;45.10;42.10;;;;;;;12.83;100.00;100716.78;4977176;28;20046;-85
2022/05/14 02:38:28;;;;;;;46.42;43.33;;;;;;;12.59;100.00;100716.59;4977417;28;20043;-86
2022/05/14 02:41:10;;;;;;;44.25;40.95;;;;;;;12.83;100.00;100709.59;4977738;28;20078;-86
2022/05/14 02:43:58;;;;;;;46.00;42.90;;;;;;;12.99;100.00;100724.19;4980808;28;20051;-86
2022/05/14 02:47:05;;;;;;;43.90;40.60;;;;;;;13.02;100.00;100731.75;4964417;28;20090;-85
2022/05/14 02:50:04;;;;;;;42.28;39.08;;;;;;;13.18;100.00;100729.53;4967704;28;20463;-85
2022/05/14 02:52:37;;;;;;;43.30;40.00;;;;;;;12.69;100.00;100728.59;4976826;28;20042;-86
2022/05/14 02:55:11;;;;;;;44.92;41.33;;;;;;;12.71;100.00;100715.84;4975826;28;20059;-85
2022/05/14 02:58:00;;;;;;;47.55;43.97;;;;;;;12.81;100.00;100718.84;4957799;28;20059;-85
2022/05/14 03:00:45;;;;;;;41.10;37.47;;;;;;;12.81;100.00;100717.00;4976827;28;20054;-86
2022/05/14 03:03:26;;;;;;;38.40;35.63;;;;;;;12.70;100.00;100709.72;4972945;28;20058;-85
2022/05/14 03:06:03;;;;;;;38.42;35.30;;;;;;;12.84;100.00;100705.91;4960999;28;20078;-85
2022/05/14 03:08:39;;;;;;;38.22;35.22;;;;;;;12.85;100.00;100706.72;4976559;28;20455;-85
2022/05/14 03:11:10;;;;;;;38.28;35.40;;;;;;;12.56;100.00;100700.25;4991033;28;20054;-85
2022/05/14 03:13:44;;;;;;;38.03;35.10;;;;;;;12.68;100.00;100705.63;4964906;28;20110;-85
2022/05/14 03:16:20;;;;;;;37.28;34.42;;;;;;;12.56;100.00;100709.03;4969859;28;20055;-85
2022/05/14 03:19:09;;;;;;;37.40;34.50;;;;;;;12.94;100.00;100705.38;4977793;28;20090;-85
2022/05/14 03:21:48;;;;;;;38.45;35.55;;;;;;;13.16;100.00;100705.78;4976299;28;20121;-85
2022/05/14 03:24:19;;;;;;;37.20;34.60;;;;;;;13.63;100.00;100714.03;4980860;28;20047;-85
2022/05/14 03:26:59;;;;;;;35.63;32.88;;;;;;;13.64;100.00;100710.31;4976147;28;20549;-85
2022/05/14 03:29:31;;;;;;;35.83;33.13;;;;;;;13.72;100.00;100709.19;4979765;28;20483;-84
2022/05/14 03:32:09;;;;;;;34.72;32.53;;;;;;;13.98;100.00;100703.47;4979479;28;20125;-85
2022/05/14 03:34:54;;;;;;;35.30;32.67;;;;;;;13.97;100.00;100714.38;4977985;28;20043;-84
2022/05/14 03:37:38;;;;;;;34.22;31.77;;;;;;;14.36;100.00;100707.59;4970759;28;20077;-84
2022/05/14 03:40:17;;;;;;;33.70;31.50;;;;;;;14.46;100.00;100712.34;4978224;28;20491;-85
2022/05/14 03:42:45;;;;;;;31.90;29.80;;;;;;;14.64;100.00;100714.97;4979023;28;20046;-85
2022/05/14 03:45:12;;;;;;;35.10;32.42;;;;;;;14.83;100.00;100731.69;4977884;28;20499;-85
2022/05/14 03:48:15;;;;;;;31.98;29.75;;;;;;;15.09;100.00;100737.59;4978460;28;20441;-85
2022/05/14 03:50:50;;;;;;;32.45;30.35;;;;;;;14.92;100.00;100758.06;4978246;28;20042;-84
2022/05/14 03:53:26;;;;;;;31.15;29.25;;;;;;;14.75;100.00;100765.97;4979378;28;20051;-85
2022/05/14 03:56:08;;;;;;;34.45;31.95;;;;;;;15.06;100.00;100787.00;4979077;28;20058;-86
2022/05/14 03:59:19;;;;;;;52.25;39.47;;;;;;;15.07;100.00;100812.72;4978504;28;20043;-86
2022/05/14 04:01:52;;;;;;;82.07;51.78;;;;;;;14.23;100.00;100779.13;4970446;28;20059;-84
2022/05/14 04:04:30;;;;;;;56.92;51.42;;;;;;;13.91;100.00;100734.78;4989270;28;20113;-85
2022/05/14 04:07:12;;;;;;;52.30;47.65;;;;;;;14.07;100.00;100751.19;4959329;28;20399;-85
2022/05/14 04:10:16;;;;;;;50.17;44.88;;;;;;;14.72;100.00;100766.44;4975603;28;20086;-85
2022/05/14 04:12:46;;;;;;;40.90;37.60;;;;;;;14.69;100.00;100766.91;4959392;29;20062;-84
2022/05/14 04:15:32;;;;;;;38.80;35.65;;;;;;;15.32;100.00;100768.84;4967326;28;20093;-84
2022/05/14 04:18:12;;;;;;;44.10;40.10;;;;;;;14.66;100.00;100768.19;4978068;28;20050;-86
2022/05/14 04:20:48;;;;;;;43.47;40.00;;;;;;;14.93;100.00;100775.75;4978774;28;20058;-84
2022/05/14 04:23:29;;;;;;;44.53;40.78;;;;;;;14.98;100.00;100783.91;4977776;28;20047;-85
2022/05/14 04:25:59;;;;;;;43.42;39.63;;;;;;;15.18;100.00;100787.00;4977689;28;20050;-86
2022/05/14 04:28:37;;;;;;;42.53;38.50;;;;;;;15.06;100.00;100799.56;4981833;28;20553;-85
2022/05/14 04:31:07;;;;;;;51.35;47.15;;;;;;;15.00;100.00;100809.34;4966478;28;20085;-84
2022/05/14 04:34:11;;;;;;;54.05;49.25;;;;;;;15.09;100.00;100828.53;4977836;28;20058;-84
2022/05/14 04:36:39;;;;;;;52.40;48.40;;;;;;;15.16;100.00;100837.28;4973389;28;20053;-85
2022/05/14 04:39:10;;;;;;;52.92;48.70;;;;;;;14.84;100.00;100837.59;4959198;28;20162;-84
2022/05/14 04:41:56;;;;;;;52.33;48.15;;;;;;;15.24;100.00;100836.91;4977312;28;20117;-83
2022/05/14 04:44:29;;;;;;;44.60;41.33;;;;;;;15.35;100.00;100845.97;4967941;28;20043;-84
2022/05/14 04:47:43;;;;;;;45.20;41.42;;;;;;;15.44;100.00;100849.91;4977510;28;20078;-84
2022/05/14 04:50:16;;;;;;;52.15;47.65;;;;;;;14.72;100.00;100855.47;4991314;28;20046;-85
2022/05/14 04:53:13;;;;;;;57.33;52.55;;;;;;;14.82;100.00;100857.56;4991691;28;20058;-85
2022/05/14 04:55:47;;;;;;;53.95;49.45;;;;;;;15.09;100.00;100876.69;4976947;28;20467;-85
2022/05/14 04:58:40;;;;;;;51.65;47.35;;;;;;;15.25;100.00;100856.44;4960715;28;20471;-85
2022/05/14 05:01:26;;;;;;;44.70;41.13;;;;;;;15.58;100.00;100871.88;4976992;28;20054;-85
2022/05/14 05:04:02;;;;;;;44.75;41.33;;;;;;;15.36;100.00;100871.69;4957807;28;20059;-85
2022/05/14 05:06:33;;;;;;;41.97;38.25;;;;;;;15.18;100.00;100867.25;4958365;29;20067;-84
2022/05/14 05:09:07;;;;;;;46.22;42.67;;;;;;;15.53;100.00;100872.59;4976833;28;20054;-84
2022/05/14 05:11:45;;;;;;;48.17;44.47;;;;;;;15.38;100.00;100869.59;4977014;28;20542;-85
2022/05/14 05:14:45;;;;;;;45.85;41.92;;;;;;;15.51;100.00;100868.53;4987012;28;20102;-85
2022/05/14 05:17:23;;;;;;;49.38;45.50;;;;;;;15.72;100.00;100857.22;4983373;28;20117;-86
2022/05/14 05:19:56;;;;;;;47.85;44.03;;;;;;;15.86;100.00;100856.97;4977199;28;20054;-86
2022/05/14 05:22:31;;;;;;;47.45;43.80;;;;;;;15.92;100.00;100854.16;4979379;28;20126;-85
2022/05/14 05:24:58;;;;;;;44.33;40.50;;;;;;;16.09;100.00;100864.09;4990448;28;20097;-84
2022/05/14 05:27:33;;;;;;;45.65;42.15;;;;;;;16.25;100.00;100864.16;4977420;28;20054;-85
2022/05/14 05:30:14;;;;;;;47.92;43.85;;;;;;;16.57;100.00;100865.53;4968951;28;20051;-85
2022/05/14 05:33:22;;;;;;;46.15;42.22;;;;;;;16.77;100.00;100862.41;4974123;28;20471;-85
2022/05/14 05:35:52;;;;;;;45.22;41.45;;;;;;;16.94;100.00;100882.81;4978798;28;20133;-84
2022/05/14 05:38:19;;;;;;;42.67;39.33;;;;;;;16.91;100.00;100875.25;4983824;28;20134;-86
2022/05/14 05:40:59;;;;;;;43.60;40.10;;;;;;;16.85;100.00;100872.72;4972714;28;20551;-85
2022/05/14 05:43:27;;;;;;;45.67;42.17;;;;;;;17.07;100.00;100870.94;4970796;28;20483;-85
2022/05/14 05:45:56;;;;;;;43.22;39.95;;;;;;;17.09;100.00;100862.63;4968013;28;20562;-84
2022/05/14 05:48:25;;;;;;;42.47;39.33;;;;;;;17.24;100.00;100859.34;4965570;28;20483;-84
2022/05/14 05:50:58;;;;;;;41.70;38.35;;;;;;;17.33;100.00;100864.06;4963065;28;20062;-85
2022/05/14 05:56:46;;;;;;;;;;;;;;;17.58;100.00;100863.63;4972330;28;20049;-84
2022/05/14 05:59:17;;;;;;;36.63;33.50;;;;;;;17.69;100.00;100861.84;4970196;28;20046;-84
2022/05/14 06:02:03;;;;;;;37.42;34.78;;;;;;;17.60;100.00;100866.03;4971553;28;20121;-85
2022/05/14 06:04:38;;;;;;;38.38;35.50;;;;;;;17.58;100.00;100866.28;4934486;29;20055;-85
2022/05/14 06:07:06;;;;;;;38.08;35.22;;;;;;;17.51;100.00;100873.69;4939132;29;20563;-83
2022/05/14 06:09:43;;;;;;;37.63;34.58;;;;;;;17.50;100.00;100869.41;4933619;29;20099;-85
2022/05/14 06:12:20;;;;;;;36.60;33.85;;;;;;;17.62;100.00;100858.53;4940078;29;20492;-83
2022/05/14 06:14:52;;;;;;;36.25;33.75;;;;;;;17.83;100.00;100867.69;4936938;29;20057;-87
2022/05/14 06:17:36;;;;;;;36.70;33.80;;;;;;;17.75;100.00;100863.53;4939109;29;20134;-84
2022/05/14 06:20:03;;;;;;;38.83;36.17;;;;;;;17.74;100.00;100859.25;4935689;29;20055;-84
2022/05/14 06:22:31;;;;;;;40.55;37.60;;;;;;;18.01;100.00;100851.25;4935970;29;20488;-85
2022/05/14 06:24:58;;;;;;;38.17;35.15;;;;;;;18.01;100.00;100853.13;4935978;29;20055;-84
2022/05/14 06:27:25;;;;;;;39.92;37.17;;;;;;;18.06;100.00;100842.41;4936050;29;20055;-84
2022/05/14 06:29:58;;;;;;;42.67;39.42;;;;;;;18.19;100.00;100842.03;4938156;29;20400;-84
2022/05/14 06:32:36;;;;;;;41.47;38.55;;;;;;;18.30;100.00;100854.50;4936037;29;20047;-85
2022/05/14 06:35:06;;;;;;;38.28;35.45;;;;;;;18.22;100.00;100849.59;4938478;29;20055;-84
2022/05/14 06:37:34;;;;;;;43.88;40.67;;;;;;;18.28;100.00;100843.22;4938423;29;20084;-84
2022/05/14 06:40:12;;;;;;;41.83;38.75;;;;;;;18.58;100.00;100849.94;4946449;29;20054;-85
2022/05/14 06:42:40;;;;;;;44.97;41.78;;;;;;;18.77;100.00;100845.00;4938551;29;20051;-85
2022/05/14 06:45:36;;;;;;;46.83;42.97;;;;;;;19.25;100.00;100845.06;4937204;29;20130;-85
2022/05/14 06:48:04;;;;;;;42.67;39.47;;;;;;;19.17;100.00;100849.84;4918542;29;20048;-85
2022/05/14 06:50:51;;;;;;;38.63;36.00;;;;;;;19.43;100.00;100850.81;4953106;29;20047;-84
2022/05/14 06:53:22;;;;;;;38.35;35.40;;;;;;;19.86;100.00;100851.56;4928562;29;20138;-85
2022/05/14 06:56:05;;;;;;;35.60;33.17;;;;;;;20.11;100.00;100848.13;4937011;29;20091;-84
2022/05/14 06:58:49;;;;;;;38.13;35.58;;;;;;;20.34;100.00;100851.44;4937434;29;20095;-85
2022/05/14 07:01:24;;;;;;;42.60;39.40;;;;;;;20.63;100.00;100850.94;4942512;29;20075;-85
2022/05/14 07:06:56;;;;;;;42.35;39.22;;;;;;;21.11;100.00;100856.84;4971133;28;20406;-84
2022/05/14 07:09:44;;;;;;;42.53;39.63;;;;;;;20.92;100.00;100862.00;4974810;28;20057;-85
2022/05/14 07:12:19;;;;;;;39.25;36.50;;;;;;;21.21;100.00;100860.34;4972388;28;20055;-85
2022/05/14 07:15:06;;;;;;;42.55;39.60;;;;;;;21.48;100.00;100872.72;4978559;28;20070;-85
2022/05/14 07:17:37;;;;;;;38.95;36.35;;;;;;;21.58;100.00;100851.06;4975429;28;20138;-83
2022/05/14 07:20:18;;;;;;;39.92;37.25;;;;;;;21.61;100.00;100865.94;4979277;28;20065;-85
2022/05/14 07:23:02;;;;;;;57.67;53.72;;;;;;;21.48;100.00;100878.13;4975094;28;20114;-84
2022/05/14 07:25:36;;;;;;;60.15;55.35;;;;;;;21.56;100.00;100877.56;4964473;28;20042;-85
2022/05/14 07:28:52;;;;;;;62.13;56.83;;;;;;;21.86;100.00;100882.03;4982267;28;20054;-85
2022/05/14 07:31:19;;;;;;;59.10;55.05;;;;;;;21.67;100.00;100879.16;4979490;28;20047;-85
2022/05/14 07:33:46;;;;;;;63.03;58.83;;;;;;;21.86;100.00;100886.63;4975785;28;20057;-85
2022/05/14 07:36:18;;;;;;;67.57;62.47;;;;;;;22.25;100.00;100886.75;4971118;28;20047;-85
2022/05/14 07:38:46;;;;;;;65.93;60.92;;;;;;;22.54;100.00;100894.13;4972550;28;20051;-86
2022/05/14 07:41:16;;;;;;;67.82;62.33;;;;;;;22.39;100.00;100892.31;4977053;28;20142;-85
2022/05/14 07:43:46;;;;;;;65.82;60.40;;;;;;;22.21;100.00;100903.78;4979260;28;20046;-85
2022/05/14 07:46:17;;;;;;;67.13;61.17;;;;;;;22.49;100.00;100910.41;4977507;28;20463;-85
2022/05/14 07:48:47;;;;;;;71.55;65.65;;;;;;;22.61;100.00;100903.53;4977721;28;20113;-84
2022/05/14 07:51:14;;;;;;;63.42;58.42;;;;;;;22.26;100.00;100912.69;4971468;28;20043;-84
2022/05/14 07:53:42;;;;;;;59.47;54.80;;;;;;;22.03;100.00;100921.44;4973956;28;20054;-86
2022/05/14 07:56:10;;;;;;;58.83;54.03;;;;;;;22.48;100.00;100911.47;4971490;28;20055;-85
2022/05/14 07:58:39;;;;;;;56.35;51.95;;;;;;;22.62;100.00;100899.75;4974618;28;20050;-85
2022/05/14 08:01:06;;;;;;;57.30;52.63;;;;;;;22.28;100.00;100910.53;4972480;28;20054;-84
2022/05/14 08:03:33;;;;;;;57.65;52.80;;;;;;;22.81;100.00;100920.72;4967108;28;20059;-85
2022/05/14 08:06:01;;;;;;;59.53;55.38;;;;;;;23.11;100.00;100910.75;4975761;28;20050;-86
2022/05/14 08:08:28;;;;;;;59.75;55.00;;;;;;;23.21;100.00;100907.97;4972676;28;20077;-85
2022/05/14 08:11:06;;;;;;;55.85;51.45;;;;;;;23.44;100.00;100909.88;4973642;28;20130;-86
2022/05/14 08:13:34;;;;;;;61.30;56.60;;;;;;;23.87;100.00;100906.44;4936477;28;20583;-85
2022/05/14 08:16:07;;;;;;;63.28;58.72;;;;;;;24.14;100.00;100913.94;5010393;28;20121;-86
2022/05/14 08:18:35;;;;;;;58.92;54.63;;;;;;;24.22;100.00;100902.44;5008357;28;20478;-86
2022/05/14 08:26:39;;;;;;;59.08;54.67;;;;;;;23.93;100.00;100910.69;5007553;28;20049;-86
2022/05/14 08:29:07;;;;;;;59.20;54.20;;;;;;;23.94;100.00;100910.41;5010420;28;20119;-86
2022/05/14 08:31:35;;;;;;;59.10;54.05;;;;;;;23.91;100.00;100911.00;5013498;28;20399;-86
2022/05/14 08:34:04;;;;;;;62.58;58.20;;;;;;;23.70;100.00;100915.06;5012701;28;20449;-85
2022/05/14 08:36:31;;;;;;;71.07;65.57;;;;;;;23.88;100.00;100917.00;5012312;28;20049;-88
2022/05/14 08:39:04;;;;;;;60.35;56.15;;;;;;;24.08;100.00;100904.25;5009542;28;20050;-86
2022/05/14 08:41:36;;;;;;;61.33;57.08;;;;;;;24.48;100.00;100902.09;5013551;28;20482;-85
2022/05/14 08:44:18;;;;;;;33.63;31.63;;;;;;;24.61;100.00;100888.59;5012881;28;20046;-87
2022/05/14 08:46:47;;;;;;;34.10;31.90;;;;;;;25.29;100.00;100905.41;5011177;28;20046;-86
2022/05/14 08:49:21;;;;;;;33.20;31.20;;;;;;;25.30;100.00;100907.81;5009565;28;20054;-86
2022/05/14 08:51:51;;;;;;;30.90;28.90;;;;;;;25.27;100.00;100899.47;5012332;28;20046;-86
2022/05/14 08:54:19;;;;;;;28.63;26.92;;;;;;;24.93;100.00;100916.84;5011503;28;20062;-86
2022/05/14 08:56:52;;;;;;;30.08;28.17;;;;;;;25.08;100.00;100907.63;5009297;28;20112;-85
2022/05/14 08:59:53;;;;;;;30.40;28.27;;;;;;;25.04;100.00;100904.72;5011364;28;20136;-86
2022/05/14 09:02:26;;;;;;;32.25;30.15;;;;;;;25.40;100.00;100906.81;5010650;28;20485;-88
2022/05/14 09:05:03;;;;;;;30.80;28.77;;;;;;;25.80;100.00;100904.41;4973075;28;20051;-87
2022/05/14 09:07:30;;;;;;;31.13;29.13;;;;;;;25.54;100.00;100906.84;4972769;28;20114;-85
2022/05/14 09:09:59;;;;;;;30.60;28.35;;;;;;;25.53;100.00;100900.56;4977500;28;20051;-86
2022/05/14 09:12:29;;;;;;;31.42;29.63;;;;;;;25.12;100.00;100904.03;4973587;28;20042;-86
2022/05/14 09:15:15;;;;;;;30.65;28.75;;;;;;;25.57;100.00;100898.88;4972780;28;20129;-86
2022/05/14 09:17:43;;;;;;;31.30;29.08;;;;;;;25.17;97.63;100902.34;4977310;28;20051;-86
2022/05/14 09:20:25;;;;;;;29.95;28.25;;;;;;;25.22;97.99;100900.34;4976771;28;20062;-85
2022/05/14 09:22:57;;;;;;;30.70;28.60;;;;;;;25.62;100.00;100902.59;4967850;28;20114;-84
2022/05/14 09:25:28;;;;;;;29.15;27.15;;;;;;;25.99;100.00;100896.13;4969547;28;20054;-87
2022/05/14 09:27:58;;;;;;;30.15;28.13;;;;;;;25.50;100.00;100898.47;4973667;28;20533;-88
2022/05/14 09:30:34;;;;;;;29.23;27.17;;;;;;;24.91;100.00;100894.63;4968947;28;20078;-85
2022/05/14 09:33:25;;;;;;;29.38;27.40;;;;;;;25.41;98.71;100892.13;4973163;28;20078;-86
2022/05/14 09:35:56;;;;;;;29.77;27.88;;;;;;;25.90;100.00;100893.34;4972082;28;20054;-86
2022/05/14 09:38:29;;;;;;;30.47;28.30;;;;;;;25.42;94.09;100893.75;4972631;28;20134;-86
2022/05/14 09:41:08;;;;;;;29.77;27.48;;;;;;;25.23;100.00;100901.16;4973509;28;20047;-88
2022/05/14 09:43:42;;;;;;;34.30;32.17;;;;;;;25.56;96.54;100891.81;4968369;28;20050;-84
2022/05/14 09:46:44;;;;;;;29.75;27.55;;;;;;;25.17;100.00;100891.47;4970857;28;20046;-86
2022/05/14 09:49:24;;;;;;;32.40;30.15;;;;;;;25.85;100.00;100884.50;4968182;28;20117;-86
2022/05/14 09:51:56;;;;;;;31.90;29.80;;;;;;;25.53;100.00;100892.41;4969466;28;20055;-85
2022/05/14 09:54:28;;;;;;;32.40;30.33;;;;;;;25.49;100.00;100898.78;4974400;28;20078;-84
2022/05/14 09:57:27;;;;;;;32.53;30.27;;;;;;;25.35;100.00;100898.75;4971213;28;20062;-86
2022/05/14 10:00:13;;;;;;;33.35;31.25;;;;;;;25.28;100.00;100899.16;4972739;28;20059;-86
2022/05/14 10:02:55;;;;;;;32.22;30.23;;;;;;;25.23;100.00;100909.31;4979033;28;20057;-86
2022/05/14 10:06:02;;;;;;;34.53;32.13;;;;;;;24.56;100.00;100894.09;5013087;28;20140;-84
2022/05/14 10:08:46;;;;;;;32.60;30.60;;;;;;;24.07;100.00;100899.94;5011747;28;20085;-84
2022/05/14 10:11:20;;;;;;;32.08;29.77;;;;;;;24.39;100.00;100894.59;5008759;28;20047;-85
2022/05/14 10:14:06;;;;;;;33.35;30.92;;;;;;;24.24;100.00;100889.41;5010492;28;20050;-86
2022/05/14 10:16:43;;;;;;;32.65;30.45;;;;;;;25.43;100.00;100892.63;5010678;28;20042;-85
2022/05/14 10:19:31;;;;;;;33.25;31.25;;;;;;;25.41;100.00;100892.13;5010675;28;20088;-84
2022/05/14 10:22:07;;;;;;;30.67;28.58;;;;;;;25.49;100.00;100896.84;5008799;28;20050;-84
2022/05/14 10:27:52;;;;;;;33.38;31.02;;;;;;;25.44;100.00;100896.16;5008726;28;20056;-86
2022/05/14 10:30:35;;;;;;;;;;;;;;;25.72;100.00;100897.78;5014414;28;20042;-86
2022/05/14 10:33:07;;;;;;;30.92;28.88;;;;;;;25.10;100.00;100895.38;5012155;28;19925;-88
2022/05/14 10:35:54;;;;;;;31.70;29.70;;;;;;;25.73;100.00;100902.09;5015582;28;20410;-87
2022/05/14 10:38:27;;;;;;;36.70;34.60;;;;;;;25.64;100.00;100893.03;5014307;28;20042;-88
2022/05/14 10:41:09;;;;;;;29.38;27.38;;;;;;;25.68;97.61;100895.94;4997942;28;20054;-85
2022/05/14 10:43:48;;;;;;;30.63;28.63;;;;;;;25.68;100.00;100891.31;5017685;28;20480;-86
2022/05/14 10:46:19;;;;;;;29.20;27.40;;;;;;;25.66;100.00;100882.66;5014365;28;20046;-84
2022/05/14 10:48:53;;;;;;;29.48;27.50;;;;;;;25.56;100.00;100885.56;5010814;28;20086;-83
2022/05/14 10:51:24;;;;;;;28.77;26.95;;;;;;;24.90;100.00;100873.97;5003771;28;20060;-86
2022/05/14 10:54:20;;;;;;;29.23;27.13;;;;;;;24.87;100.00;100869.16;5022486;28;20473;-87
2022/05/14 10:57:42;;;;;;;30.42;28.42;;;;;;;25.13;100.00;100866.81;5021078;28;20076;-86
2022/05/14 11:00:39;;;;;;;32.30;30.00;;;;;;;25.39;100.00;100869.06;5020313;28;20046;-85
2022/05/14 11:03:18;;;;;;;30.80;28.83;;;;;;;25.15;100.00;100856.47;5014264;28;20065;-87
2022/05/14 11:06:10;;;;;;;32.45;30.25;;;;;;;25.12;100.00;100860.56;5015256;28;20062;-86
2022/05/14 11:08:48;;;;;;;31.88;29.77;;;;;;;25.23;100.00;100849.53;5012718;28;20057;-86
2022/05/14 11:11:32;;;;;;;31.50;29.40;;;;;;;25.02;100.00;100855.28;5006084;28;20065;-85
2022/05/14 11:14:10;;;;;;;31.15;29.08;;;;;;;25.11;100.00;100853.53;5016237;28;20054;-85
2022/05/14 11:16:43;;;;;;;32.90;30.45;;;;;;;25.38;100.00;100851.94;5016550;28;20046;-87
2022/05/14 11:19:11;;;;;;;32.17;30.00;;;;;;;25.33;100.00;100844.69;5018130;28;20065;-85
2022/05/14 11:21:47;;;;;;;32.58;30.27;;;;;;;25.43;100.00;100845.59;5006651;28;20054;-87
2022/05/14 11:24:16;;;;;;;31.10;29.08;;;;;;;25.68;100.00;100839.63;5021847;28;20053;-87
2022/05/14 11:26:50;;;;;;;32.22;30.08;;;;;;;25.65;100.00;100844.88;5016537;28;20050;-88
2022/05/14 11:29:20;;;;;;;32.05;29.95;;;;;;;25.95;100.00;100835.28;5012465;28;20068;-85
2022/05/14 11:31:55;;;;;;;30.48;28.67;;;;;;;25.32;100.00;100834.13;5016215;28;20046;-86
2022/05/14 11:34:26;;;;;;;31.00;29.00;;;;;;;26.21;100.00;100825.44;5018829;28;20050;-86
2022/05/14 11:36:56;;;;;;;31.23;29.10;;;;;;;25.97;100.00;100827.63;5019199;28;20054;-87
2022/05/14 11:39:40;;;;;;;31.45;29.25;;;;;;;26.16;100.00;100825.53;5018257;28;20064;-86
2022/05/14 11:42:30;;;;;;;30.63;28.52;;;;;;;25.71;100.00;100821.91;5017295;28;20128;-86
2022/05/14 11:45:25;;;;;;;30.75;28.75;;;;;;;26.40;100.00;100810.84;5016685;28;20061;-87
2022/05/14 11:48:04;;;;;;;31.60;29.50;;;;;;;26.40;100.00;100810.84;5016472;28;20042;-87
2022/05/14 11:51:20;;;;;;;32.45;29.95;;;;;;;26.73;100.00;100808.66;5018633;28;20469;-85
2022/05/14 11:54:32;;;;;;;33.28;31.10;;;;;;;26.64;95.32;100800.44;5020085;28;20120;-85
2022/05/14 11:57:03;;;;;;;33.38;31.00;;;;;;;26.19;97.36;100802.34;5017959;28;20120;-85
2022/05/14 11:59:40;;;;;;;34.42;32.33;;;;;;;26.96;90.50;100803.97;5013603;28;20058;-87
2022/05/14 12:02:11;;;;;;;31.88;29.70;;;;;;;27.55;81.71;100801.78;5015807;28;20042;-87
2022/05/14 12:04:59;;;;;;;31.00;28.97;;;;;;;28.74;83.95;100788.72;5020380;28;20136;-86
2022/05/14 12:07:59;;;;;;;31.13;29.23;;;;;;;27.61;92.55;100783.31;5024344;28;20394;-86
2022/05/14 12:10:30;;;;;;;32.30;30.30;;;;;;;25.32;87.43;100801.50;5018072;28;20053;-86